Terminal Aerodrome Forecast
Issued by NWS Detroit/Pontiac, MI

Home | Current Version | Previous Version | Text Only | Print | Product List | Glossary On
Versions: 1 2 3 4 5 6 7 8 9 10 11 12 13 14 15
000
FTUS43 KDTX 010600 AAA
TAFFNT
TAF AMD
KFNT 010650Z 0107/0206 21005KT P6SM SCT100
      TEMPO 0107/0108 P6SM -TSRA BKN060CB
     FM011500 24006KT P6SM SCT050
     FM011800 24007KT P6SM BKN060
     FM012300 20004KT P6SM SCT060 BKN150=

USA.gov is the U.S. government's official web portal to all federal, state and local government web resources and services.